createdAt,value
2018-05-09T00:00:36.465Z,3.00
2018-05-09T00:03:09.131Z,3.27
2018-05-09T00:05:41.732Z,2.97
2018-05-09T00:08:15.131Z,2.97
2018-05-09T00:10:47.744Z,3.10
2018-05-09T00:13:21.123Z,3.10
2018-05-09T00:15:53.720Z,3.37
2018-05-09T00:18:26.352Z,3.17
2018-05-09T00:20:58.958Z,2.93
2018-05-09T00:23:31.581Z,3.17
2018-05-09T00:26:04.172Z,2.90
2018-05-09T00:28:36.816Z,3.57
2018-05-09T00:31:09.424Z,2.67
2018-05-09T00:33:42.069Z,2.90
2018-05-09T00:36:14.662Z,3.03
2018-05-09T00:38:47.312Z,3.00
2018-05-09T00:41:19.922Z,3.30
2018-05-09T00:43:52.558Z,3.20
2018-05-09T00:46:25.164Z,3.17
2018-05-09T00:48:57.803Z,3.23
2018-05-09T00:51:30.407Z,3.00
2018-05-09T00:54:15.079Z,3.07
2018-05-09T00:56:47.668Z,3.10
2018-05-09T00:59:20.300Z,3.13
2018-05-09T01:01:52.900Z,3.03
2018-05-09T01:04:25.539Z,3.27
2018-05-09T01:06:58.147Z,3.40
2018-05-09T01:09:30.772Z,3.70
2018-05-09T01:12:03.383Z,3.10
2018-05-09T01:14:36.033Z,3.13
2018-05-09T01:17:09.416Z,3.20
2018-05-09T01:19:42.046Z,3.30
2018-05-09T01:22:14.638Z,3.43
2018-05-09T01:24:48.056Z,3.13
2018-05-09T01:27:30.466Z,3.57
2018-05-09T01:30:03.083Z,3.43
2018-05-09T01:32:35.671Z,3.67
2018-05-09T01:35:08.299Z,3.17
2018-05-09T01:37:40.895Z,3.27
2018-05-09T01:40:13.527Z,3.33
2018-05-09T01:42:46.123Z,3.07
2018-05-09T01:45:18.763Z,3.27
2018-05-09T01:47:51.375Z,3.23
2018-05-09T01:50:23.987Z,3.40
2018-05-09T01:52:56.579Z,3.30
2018-05-09T01:55:29.187Z,3.57
2018-05-09T01:58:01.787Z,3.20
2018-05-09T02:00:34.423Z,3.10
2018-05-09T02:03:07.027Z,3.70
2018-05-09T02:05:39.668Z,3.53
2018-05-09T02:08:12.270Z,3.50
2018-05-09T02:10:44.915Z,3.20
2018-05-09T02:13:17.523Z,3.17
2018-05-09T02:15:50.154Z,3.13
2018-05-09T02:18:22.786Z,3.47
2018-05-09T02:20:55.427Z,3.17
2018-05-09T02:23:28.014Z,3.37
2018-05-09T02:26:00.648Z,3.30
2018-05-09T02:28:34.019Z,3.80
2018-05-09T02:31:06.693Z,3.60
2018-05-09T02:33:39.272Z,3.43
2018-05-09T02:36:11.899Z,3.60
2018-05-09T02:38:44.503Z,3.73
2018-05-09T02:41:17.120Z,4.00
2018-05-09T02:43:50.555Z,3.80
2018-05-09T02:46:23.127Z,3.87
2018-05-09T02:48:56.497Z,4.00
2018-05-09T02:51:29.127Z,4.27
2018-05-09T02:54:01.723Z,4.53
2018-05-09T02:56:34.362Z,3.70
2018-05-09T02:59:06.963Z,4.03
2018-05-09T03:01:39.607Z,3.73
2018-05-09T03:04:12.200Z,3.57
2018-05-09T03:06:44.830Z,3.57
2018-05-09T03:09:17.428Z,3.70
2018-05-09T03:11:50.063Z,4.27
2018-05-09T03:14:22.664Z,4.70
2018-05-09T03:16:55.306Z,3.60
2018-05-09T03:19:27.907Z,4.07
2018-05-09T03:22:00.542Z,3.93
2018-05-09T03:24:33.136Z,4.10
2018-05-09T03:27:05.771Z,4.20
2018-05-09T03:29:38.363Z,4.07
2018-05-09T03:32:10.966Z,3.93
2018-05-09T03:34:43.573Z,4.00
2018-05-09T03:37:16.208Z,4.40
2018-05-09T03:39:48.839Z,4.30
2018-05-09T03:42:21.497Z,4.20
2018-05-09T03:44:54.087Z,3.80
2018-05-09T03:47:26.728Z,4.80
2018-05-09T03:50:00.095Z,4.00
2018-05-09T03:52:32.735Z,4.40
2018-05-09T03:55:05.329Z,3.80
2018-05-09T03:57:38.703Z,4.50
2018-05-09T04:00:11.299Z,4.27
2018-05-09T04:02:56.640Z,4.30
2018-05-09T04:05:41.067Z,4.10
2018-05-09T04:08:25.498Z,4.73
2018-05-09T04:10:58.094Z,4.77
2018-05-09T04:13:30.724Z,4.30
2018-05-09T04:16:03.340Z,4.00
2018-05-09T04:18:36.729Z,4.17
2018-05-09T04:21:10.120Z,4.17
2018-05-09T04:23:42.742Z,4.60
2018-05-09T04:26:15.352Z,5.13
2018-05-09T04:28:49.836Z,5.00
2018-05-09T04:31:22.433Z,4.77
2018-05-09T04:33:55.050Z,4.80
2018-05-09T04:36:27.663Z,4.63
2018-05-09T04:39:00.331Z,5.07
2018-05-09T04:41:32.939Z,5.40
2018-05-09T04:44:05.584Z,4.67
2018-05-09T04:46:38.184Z,5.47
2018-05-09T04:49:10.853Z,5.23
2018-05-09T04:51:43.464Z,5.43
2018-05-09T04:54:16.112Z,5.90
2018-05-09T04:56:48.716Z,5.23
2018-05-09T04:59:21.355Z,6.27
2018-05-09T05:01:54.718Z,5.30
2018-05-09T05:04:27.356Z,5.27
2018-05-09T05:07:00.026Z,5.57
2018-05-09T05:09:32.623Z,5.60
2018-05-09T05:12:05.224Z,5.07
2018-05-09T05:14:38.607Z,4.93
2018-05-09T05:17:11.199Z,5.30
2018-05-09T05:19:43.835Z,4.77
2018-05-09T05:22:16.442Z,4.90
2018-05-09T05:24:49.129Z,5.13
2018-05-09T05:27:21.688Z,4.90
2018-05-09T05:29:55.084Z,5.30
2018-05-09T05:32:27.696Z,5.23
2018-05-09T05:35:01.107Z,5.40
2018-05-09T05:37:33.704Z,4.57
2018-05-09T05:40:07.114Z,4.90
2018-05-09T05:42:40.484Z,5.23
2018-05-09T05:45:13.264Z,4.80
2018-05-09T05:47:45.743Z,4.73
2018-05-09T05:50:18.390Z,4.93
2018-05-09T05:52:51.751Z,5.17
2018-05-09T05:55:24.388Z,4.97
2018-05-09T05:57:56.979Z,5.00
2018-05-09T06:00:30.390Z,5.10
2018-05-09T06:03:02.991Z,4.97
2018-05-09T06:05:36.376Z,4.77
2018-05-09T06:08:08.975Z,5.13
2018-05-09T06:10:42.385Z,4.90
2018-05-09T06:13:14.988Z,4.90
2018-05-09T06:15:48.395Z,5.23
2018-05-09T06:18:20.997Z,4.93
2018-05-09T06:20:53.636Z,4.77
2018-05-09T06:23:26.243Z,4.93
2018-05-09T06:25:58.856Z,4.60
2018-05-09T06:28:32.220Z,4.57
2018-05-09T06:31:04.968Z,5.20
2018-05-09T06:33:37.501Z,4.33
2018-05-09T06:36:10.131Z,4.50
2018-05-09T06:38:42.727Z,4.57
2018-05-09T06:41:16.130Z,5.20
2018-05-09T06:43:49.041Z,4.27
2018-05-09T06:46:22.447Z,4.90
2018-05-09T06:48:55.043Z,4.37
2018-05-09T06:51:28.429Z,4.87
2018-05-09T06:54:01.023Z,4.47
2018-05-09T06:56:34.408Z,4.77
2018-05-09T06:59:07.056Z,5.47
2018-05-09T07:01:40.440Z,4.60
2018-05-09T07:04:13.803Z,4.63
2018-05-09T07:06:46.897Z,4.43
2018-05-09T07:09:19.978Z,5.10
2018-05-09T07:11:52.623Z,4.93
2018-05-09T07:14:25.227Z,4.57
2018-05-09T07:16:57.856Z,4.60
2018-05-09T07:19:30.471Z,4.60
2018-05-09T07:22:03.108Z,5.17
2018-05-09T07:24:35.707Z,4.83
2018-05-09T07:27:09.111Z,4.47
2018-05-09T07:29:41.715Z,5.37
2018-05-09T07:32:14.355Z,5.20
2018-05-09T07:34:46.971Z,5.00
2018-05-09T07:37:19.596Z,4.60
2018-05-09T07:39:52.961Z,4.80
2018-05-09T07:42:25.607Z,5.07
2018-05-09T07:44:58.215Z,4.87
2018-05-09T07:47:30.946Z,4.37
2018-05-09T07:50:04.231Z,4.27
2018-05-09T07:52:36.864Z,4.90
2018-05-09T07:55:09.475Z,4.50
2018-05-09T07:57:42.124Z,3.90
2018-05-09T08:00:14.726Z,4.43
2018-05-09T08:02:47.367Z,3.73
2018-05-09T08:05:19.968Z,3.80
2018-05-09T08:07:52.601Z,3.80
2018-05-09T08:10:25.196Z,3.87
2018-05-09T08:12:57.922Z,4.20
2018-05-09T08:15:30.451Z,4.03
2018-05-09T08:18:03.085Z,3.83
2018-05-09T08:20:35.687Z,3.93
2018-05-09T08:23:08.335Z,3.67
2018-05-09T08:25:41.908Z,4.60
2018-05-09T08:28:14.552Z,3.97
2018-05-09T08:30:47.151Z,3.90
2018-05-09T08:33:19.786Z,3.33
2018-05-09T08:35:52.384Z,4.10
2018-05-09T08:38:25.004Z,4.20
2018-05-09T08:40:57.598Z,3.80
2018-05-09T08:43:30.319Z,3.70
2018-05-09T08:46:02.863Z,3.83
2018-05-09T08:48:35.511Z,3.83
2018-05-09T08:51:08.878Z,3.57
2018-05-09T08:53:41.518Z,4.00
2018-05-09T08:56:14.115Z,3.53
2018-05-09T08:58:46.758Z,3.03
2018-05-09T09:01:19.361Z,3.70
2018-05-09T09:03:51.971Z,3.73
2018-05-09T09:06:24.623Z,3.30
2018-05-09T09:08:57.225Z,3.60
2018-05-09T09:11:29.829Z,3.60
2018-05-09T09:14:02.443Z,3.33
2018-05-09T09:16:35.027Z,2.93
2018-05-09T09:19:08.423Z,3.57
2018-05-09T09:21:41.026Z,2.73
2018-05-09T09:24:14.422Z,2.93
2018-05-09T09:26:47.008Z,3.30
2018-05-09T09:29:19.758Z,2.73
2018-05-09T09:31:52.255Z,2.40
2018-05-09T09:34:24.899Z,2.33
2018-05-09T09:36:58.259Z,2.77
2018-05-09T09:39:30.891Z,2.50
2018-05-09T09:42:03.479Z,2.53
2018-05-09T09:44:36.092Z,2.60
2018-05-09T09:47:09.452Z,2.80
2018-05-09T09:49:42.091Z,2.47
2018-05-09T09:52:14.683Z,2.40
2018-05-09T09:54:48.068Z,2.73
2018-05-09T09:57:20.663Z,3.00
2018-05-09T09:59:53.304Z,2.40
2018-05-09T10:02:25.903Z,2.57
2018-05-09T10:04:58.519Z,2.60
2018-05-09T10:07:31.115Z,2.80
2018-05-09T10:10:03.748Z,2.50
2018-05-09T10:12:36.371Z,2.60
2018-05-09T10:15:08.994Z,2.43
2018-05-09T10:17:41.582Z,2.50
2018-05-09T10:20:14.194Z,2.47
2018-05-09T10:22:47.560Z,2.57
2018-05-09T10:25:20.195Z,2.57
2018-05-09T10:27:53.563Z,2.80
2018-05-09T10:30:26.179Z,2.37
2018-05-09T10:32:58.767Z,2.80
2018-05-09T10:35:31.394Z,2.10
2018-05-09T10:38:03.986Z,2.63
2018-05-09T10:40:36.611Z,2.60
2018-05-09T10:43:09.206Z,2.50
2018-05-09T10:45:41.847Z,2.67
2018-05-09T10:48:14.435Z,2.50
2018-05-09T10:50:47.151Z,2.50
2018-05-09T10:53:19.682Z,2.20
2018-05-09T10:55:52.319Z,2.30
2018-05-09T10:58:25.707Z,2.50
2018-05-09T11:00:58.335Z,2.40
2018-05-09T11:03:30.941Z,2.47
2018-05-09T11:06:03.591Z,2.50
2018-05-09T11:08:36.952Z,2.40
2018-05-09T11:11:09.564Z,2.10
2018-05-09T11:13:42.174Z,2.40
2018-05-09T11:16:15.550Z,2.10
2018-05-09T11:18:48.159Z,2.27
2018-05-09T11:21:20.775Z,2.40
2018-05-09T11:23:54.135Z,2.40
2018-05-09T11:26:26.814Z,2.07
2018-05-09T11:28:59.435Z,1.73
2018-05-09T11:31:32.090Z,1.90
2018-05-09T11:34:07.749Z,2.22
2018-05-09T11:36:40.385Z,2.20
2018-05-09T11:39:12.986Z,1.98
2018-05-09T11:41:45.615Z,2.03
2018-05-09T11:44:18.211Z,1.85
2018-05-09T11:46:50.829Z,1.90
2018-05-09T11:49:23.429Z,2.20
2018-05-09T11:51:56.059Z,1.90
2018-05-09T11:54:29.504Z,1.73
2018-05-09T11:57:02.151Z,1.77
2018-05-09T11:59:34.768Z,1.67
2018-05-09T12:02:08.223Z,1.60
2018-05-09T12:04:40.864Z,1.87
2018-05-09T12:07:13.510Z,1.73
2018-05-09T12:09:46.107Z,1.87
2018-05-09T12:12:18.743Z,1.80
2018-05-09T12:14:51.340Z,2.00
2018-05-09T12:17:23.967Z,1.80
2018-05-09T12:19:56.578Z,1.83
2018-05-09T12:22:29.223Z,2.30
2018-05-09T12:25:01.811Z,1.90
2018-05-09T12:27:34.433Z,1.93
2018-05-09T12:30:07.031Z,2.20
2018-05-09T12:32:39.663Z,2.00
2018-05-09T12:35:12.267Z,2.13
2018-05-09T12:37:45.647Z,1.90
2018-05-09T12:40:18.246Z,2.33
2018-05-09T12:42:50.863Z,2.25
2018-05-09T12:45:23.464Z,2.22
2018-05-09T12:47:56.091Z,2.08
2018-05-09T12:50:28.686Z,1.77
2018-05-09T12:53:01.323Z,2.45
2018-05-09T12:55:34.698Z,2.00
2018-05-09T12:58:07.361Z,2.35
2018-05-09T13:00:39.963Z,2.40
2018-05-09T13:03:12.611Z,2.20
2018-05-09T13:05:45.211Z,2.60
2018-05-09T13:08:17.863Z,2.80
2018-05-09T13:10:50.463Z,2.70
2018-05-09T13:13:23.160Z,2.67
2018-05-09T13:15:55.713Z,2.50
2018-05-09T13:18:28.357Z,2.83
2018-05-09T13:21:01.727Z,2.60
2018-05-09T13:23:34.342Z,2.62
2018-05-09T13:26:06.939Z,2.53
2018-05-09T13:28:40.368Z,2.95
2018-05-09T13:31:13.720Z,2.60
2018-05-09T13:33:46.392Z,2.90
2018-05-09T13:36:19.007Z,3.05
2018-05-09T13:38:51.652Z,2.90
2018-05-09T13:41:24.260Z,3.15
2018-05-09T13:43:56.875Z,2.85
2018-05-09T13:46:29.484Z,2.90
2018-05-09T13:49:02.112Z,3.62
2018-05-09T13:51:34.715Z,3.40
2018-05-09T13:54:07.341Z,3.30
2018-05-09T13:56:39.939Z,2.95
2018-05-09T13:59:12.589Z,2.95
2018-05-09T14:01:45.197Z,3.05
2018-05-09T14:04:17.822Z,3.25
2018-05-09T14:06:50.422Z,3.22
2018-05-09T14:09:23.043Z,3.50
2018-05-09T14:11:55.658Z,2.92
2018-05-09T14:14:28.280Z,2.90
2018-05-09T14:17:00.875Z,2.78
2018-05-09T14:19:33.533Z,3.08
2018-05-09T14:22:06.164Z,3.72
2018-05-09T14:24:38.815Z,3.37
2018-05-09T14:27:11.465Z,3.00
2018-05-09T14:29:44.124Z,2.80
2018-05-09T14:32:16.736Z,2.92
2018-05-09T14:34:50.151Z,3.10
2018-05-09T14:37:26.099Z,3.08
2018-05-09T14:39:58.783Z,3.03
2018-05-09T14:42:31.382Z,3.05
2018-05-09T14:45:04.024Z,3.15
2018-05-09T14:47:36.627Z,2.83
2018-05-09T14:50:09.268Z,2.83
2018-05-09T14:52:42.042Z,2.78
2018-05-09T14:55:15.748Z,3.08
2018-05-09T14:57:48.347Z,3.20
2018-05-09T15:00:21.039Z,3.40
2018-05-09T15:02:54.356Z,3.10
2018-05-09T15:05:26.967Z,3.20
2018-05-09T15:07:59.558Z,3.20
2018-05-09T15:10:36.555Z,2.92
2018-05-09T15:13:09.171Z,3.07
2018-05-09T15:15:41.796Z,4.73
2018-05-09T15:18:14.395Z,3.55
2018-05-09T15:20:47.053Z,3.40
2018-05-09T15:23:19.659Z,3.10
2018-05-09T15:25:52.276Z,3.00
2018-05-09T15:28:24.891Z,3.17
2018-05-09T15:30:57.508Z,3.33
2018-05-09T15:33:30.871Z,3.47
2018-05-09T15:36:03.529Z,3.07
2018-05-09T15:38:36.147Z,3.00
2018-05-09T15:41:08.820Z,3.00
2018-05-09T15:43:41.429Z,2.87
2018-05-09T15:46:14.063Z,3.10
2018-05-09T15:48:46.668Z,3.13
2018-05-09T15:51:19.307Z,3.12
2018-05-09T15:53:51.914Z,3.28
2018-05-09T15:56:24.574Z,3.90
2018-05-09T15:58:57.178Z,2.93
2018-05-09T16:01:33.932Z,3.80
2018-05-09T16:04:06.535Z,2.97
2018-05-09T16:06:39.168Z,3.60
2018-05-09T16:09:11.775Z,3.13
2018-05-09T16:11:44.402Z,2.90
2018-05-09T16:14:16.995Z,3.60
2018-05-09T16:16:49.616Z,3.30
2018-05-09T16:19:22.247Z,3.17
2018-05-09T16:21:54.902Z,3.40
2018-05-09T16:24:27.508Z,3.67
2018-05-09T16:27:00.154Z,2.97
2018-05-09T16:29:32.766Z,3.57
2018-05-09T16:32:05.411Z,3.43
2018-05-09T16:34:38.015Z,3.23
2018-05-09T16:37:10.638Z,3.10
2018-05-09T16:39:43.230Z,3.30
2018-05-09T16:42:15.876Z,3.20
2018-05-09T16:44:49.256Z,3.60
2018-05-09T16:47:21.912Z,3.23
2018-05-09T16:49:54.551Z,3.73
2018-05-09T16:52:27.174Z,3.53
2018-05-09T16:54:59.802Z,3.60
2018-05-09T16:57:33.244Z,3.60
2018-05-09T17:00:05.847Z,3.40
2018-05-09T17:02:39.277Z,3.30
2018-05-09T17:05:11.902Z,3.03
2018-05-09T17:07:44.539Z,4.07
2018-05-09T17:10:17.155Z,3.40
2018-05-09T17:12:49.811Z,3.13
2018-05-09T17:15:22.452Z,3.30
2018-05-09T17:17:55.116Z,3.47
2018-05-09T17:20:28.498Z,3.83
2018-05-09T17:23:01.137Z,3.43
2018-05-09T17:25:33.764Z,3.20
2018-05-09T17:28:06.417Z,3.53
2018-05-09T17:30:39.092Z,3.00
2018-05-09T17:33:11.712Z,3.87
2018-05-09T17:35:44.360Z,3.57
2018-05-09T17:38:17.007Z,3.60
2018-05-09T17:40:49.609Z,3.33
2018-05-09T17:43:22.259Z,3.70
2018-05-09T17:45:54.889Z,3.90
2018-05-09T17:48:27.547Z,3.83
2018-05-09T17:51:00.176Z,3.50
2018-05-09T17:53:32.875Z,4.00
2018-05-09T17:56:05.544Z,3.43
2018-05-09T17:58:38.251Z,3.40
2018-05-09T18:01:10.824Z,3.90
2018-05-09T18:03:43.484Z,3.80
2018-05-09T18:06:16.088Z,4.47
2018-05-09T18:08:49.499Z,4.97
2018-05-09T18:11:22.100Z,3.87
2018-05-09T18:13:54.724Z,4.03
2018-05-09T18:16:27.334Z,4.53
2018-05-09T18:19:00.049Z,5.70
2018-05-09T18:21:32.710Z,5.50
2018-05-09T18:24:05.451Z,5.47
2018-05-09T18:26:38.064Z,5.57
2018-05-09T18:29:11.473Z,6.33
2018-05-09T18:31:44.084Z,5.90
2018-05-09T18:34:16.727Z,6.17
2018-05-09T18:36:51.112Z,5.07
2018-05-09T18:39:23.956Z,5.70
2018-05-09T18:41:56.690Z,5.77
2018-05-09T18:44:29.427Z,5.63
2018-05-09T18:47:02.102Z,4.70
2018-05-09T18:49:34.767Z,5.23
2018-05-09T18:52:07.501Z,4.20
2018-05-09T18:54:40.161Z,4.60
2018-05-09T18:57:12.916Z,4.90
2018-05-09T18:59:45.927Z,4.63
2018-05-09T19:02:18.657Z,4.20
2018-05-09T19:04:54.529Z,3.93
2018-05-09T19:07:27.180Z,3.90
2018-05-09T19:09:59.888Z,4.43
2018-05-09T19:12:32.499Z,4.00
2018-05-09T19:15:05.223Z,5.77
2018-05-09T19:17:38.611Z,4.37
2018-05-09T19:20:11.641Z,4.23
2018-05-09T19:22:44.478Z,4.27
2018-05-09T19:25:17.128Z,4.13
2018-05-09T19:27:49.728Z,4.87
2018-05-09T19:30:22.372Z,4.87
2018-05-09T19:32:54.975Z,4.93
2018-05-09T19:35:27.629Z,3.50
2018-05-09T19:38:00.235Z,4.37
2018-05-09T19:40:32.884Z,4.00
2018-05-09T19:43:06.255Z,3.67
2018-05-09T19:45:38.915Z,4.00
2018-05-09T19:48:11.565Z,4.40
2018-05-09T19:50:44.208Z,4.27
2018-05-09T19:53:16.844Z,4.27
2018-05-09T19:55:49.479Z,4.07
2018-05-09T19:58:22.277Z,3.90
2018-05-09T20:00:54.915Z,4.03
2018-05-09T20:03:27.531Z,4.40
2018-05-09T20:06:00.160Z,4.40
2018-05-09T20:08:32.781Z,4.03
2018-05-09T20:11:05.421Z,3.90
2018-05-09T20:13:38.471Z,4.17
2018-05-09T20:16:11.089Z,3.77
2018-05-09T20:18:43.708Z,4.43
2018-05-09T20:21:17.120Z,3.77
2018-05-09T20:23:49.737Z,3.73
2018-05-09T20:26:22.447Z,4.00
2018-05-09T20:29:00.767Z,4.23
2018-05-09T20:31:50.957Z,4.20
2018-05-09T20:34:23.625Z,3.93
2018-05-09T20:36:56.292Z,4.00
2018-05-09T20:39:28.896Z,3.60
2018-05-09T20:42:01.579Z,3.57
2018-05-09T20:44:34.221Z,4.17
2018-05-09T20:47:06.883Z,3.80
2018-05-09T20:49:40.581Z,3.83
2018-05-09T20:52:13.428Z,3.90
2018-05-09T20:54:46.152Z,3.90
2018-05-09T20:57:18.840Z,3.90
2018-05-09T20:59:51.451Z,4.20
2018-05-09T21:02:24.079Z,4.30
2018-05-09T21:04:56.696Z,4.10
2018-05-09T21:07:29.345Z,3.93
2018-05-09T21:10:02.336Z,3.70
2018-05-09T21:12:35.158Z,4.20
2018-05-09T21:15:07.779Z,4.40
2018-05-09T21:17:40.444Z,4.27
2018-05-09T21:20:13.159Z,4.50
2018-05-09T21:22:45.923Z,4.50
2018-05-09T21:25:18.576Z,4.03
2018-05-09T21:27:51.228Z,4.03
2018-05-09T21:30:23.832Z,4.03
2018-05-09T21:32:56.513Z,4.37
2018-05-09T21:35:29.184Z,4.20
2018-05-09T21:38:01.812Z,4.50
2018-05-09T21:40:34.496Z,4.43
2018-05-09T21:43:07.172Z,4.53
2018-05-09T21:45:39.830Z,4.40
2018-05-09T21:48:12.611Z,4.50
2018-05-09T21:50:45.280Z,4.00
2018-05-09T21:53:18.001Z,4.23
2018-05-09T21:55:50.682Z,4.17
2018-05-09T21:58:23.373Z,4.40
2018-05-09T22:00:56.028Z,4.20
2018-05-09T22:03:28.684Z,4.70
2018-05-09T22:06:01.436Z,4.17
2018-05-09T22:08:34.256Z,4.03
2018-05-09T22:11:06.899Z,4.63
2018-05-09T22:13:39.584Z,4.13
2018-05-09T22:16:12.212Z,4.13
2018-05-09T22:18:44.878Z,4.50
2018-05-09T22:21:17.495Z,4.50
2018-05-09T22:23:50.432Z,4.60
2018-05-09T22:26:23.850Z,4.20
2018-05-09T22:28:57.280Z,4.30
2018-05-09T22:31:29.912Z,4.27
2018-05-09T22:34:02.704Z,3.97
2018-05-09T22:36:35.341Z,4.50
2018-05-09T22:39:08.781Z,4.30
2018-05-09T22:41:41.463Z,4.80
2018-05-09T22:44:14.129Z,3.97
2018-05-09T22:46:46.825Z,5.00
2018-05-09T22:49:19.479Z,4.40
2018-05-09T22:51:52.088Z,4.40
2018-05-09T22:54:24.739Z,4.37
2018-05-09T22:56:57.370Z,4.40
2018-05-09T22:59:30.053Z,4.33
2018-05-09T23:02:02.686Z,4.30
2018-05-09T23:04:35.352Z,4.80
2018-05-09T23:07:07.995Z,4.63
2018-05-09T23:09:40.653Z,4.80
2018-05-09T23:12:13.270Z,5.00
2018-05-09T23:14:46.048Z,4.70
2018-05-09T23:17:18.704Z,4.90
2018-05-09T23:19:51.344Z,4.30
2018-05-09T23:22:23.957Z,4.73
2018-05-09T23:24:56.627Z,4.30
2018-05-09T23:27:29.379Z,4.53
2018-05-09T23:30:02.037Z,4.70
2018-05-09T23:32:34.649Z,4.70
2018-05-09T23:35:07.324Z,5.40
2018-05-09T23:37:39.957Z,5.67
2018-05-09T23:40:12.610Z,4.63
2018-05-09T23:42:45.241Z,4.97
2018-05-09T23:45:17.921Z,5.17
2018-05-09T23:47:50.539Z,4.67
2018-05-09T23:50:23.193Z,4.90
2018-05-09T23:52:55.870Z,5.30
2018-05-09T23:55:28.560Z,5.30
2018-05-09T23:58:01.237Z,5.60
